Time;durP1;ratioP1;P1;durP2;ratioP2;P2;SDS_P1;SDS_P2;PMS_P1;PMS_P2;Temp;Humidity;BMP_temperature;BMP_pressure;BME280_temperature;BME280_humidity;BME280_pressure;Samples;Min_cycle;Max_cycle;Signal;HPM_P1;HPM_P2
2023/05/13 00:00:11;;;;;;;2.13;1.40;;;13.30;90.00;;;;;;5113385;28;20984;-74
2023/05/13 00:02:38;;;;;;;1.73;1.20;;;13.40;99.90;;;;;;5110045;28;20456;-70
2023/05/13 00:05:05;;;;;;;2.67;1.40;;;13.30;76.70;;;;;;5113004;28;20475;-74
2023/05/13 00:07:32;;;;;;;1.90;1.20;;;13.30;29.00;;;;;;5113001;28;20866;-74
2023/05/13 00:09:59;;;;;;;2.93;1.93;;;13.30;99.90;;;;;;5113334;28;20482;-75
2023/05/13 00:12:25;;;;;;;2.33;1.80;;;13.30;51.90;;;;;;5113804;28;20534;-75
2023/05/13 00:14:52;;;;;;;2.07;1.10;;;13.20;99.90;;;;;;5112816;28;20494;-75
2023/05/13 00:17:20;;;;;;;1.80;1.20;;;13.30;99.90;;;;;;5113328;28;20444;-74
2023/05/13 00:19:47;;;;;;;2.80;1.70;;;13.30;99.90;;;;;;5112378;28;20456;-75
2023/05/13 00:22:14;;;;;;;2.03;1.20;;;13.20;73.60;;;;;;5113178;28;20953;-75
2023/05/13 00:24:41;;;;;;;1.87;1.30;;;13.30;99.90;;;;;;5111527;28;20981;-74
2023/05/13 00:27:07;;;;;;;2.67;1.60;;;13.30;88.10;;;;;;5113484;28;20463;-72
2023/05/13 00:29:34;;;;;;;3.90;1.60;;;13.30;23.60;;;;;;5114146;27;20444;-75
2023/05/13 00:32:02;;;;;;;1.80;1.33;;;13.30;13.10;;;;;;5112642;28;20863;-73
2023/05/13 00:34:30;;;;;;;3.23;1.47;;;13.30;14.10;;;;;;5112845;28;20451;-75
2023/05/13 00:36:56;;;;;;;1.83;1.43;;;13.40;1.00;;;;;;5112187;28;20903;-75
2023/05/13 00:39:23;;;;;;;3.13;1.67;;;13.30;1.00;;;;;;5112626;28;20833;-75
2023/05/13 00:41:50;;;;;;;2.40;1.53;;;13.30;1.00;;;;;;5112100;28;20477;-75
2023/05/13 00:44:17;;;;;;;2.50;1.20;;;13.30;1.00;;;;;;5113149;28;20447;-75
2023/05/13 00:46:44;;;;;;;2.50;1.70;;;13.40;1.00;;;;;;5112273;28;20490;-75
2023/05/13 00:49:11;;;;;;;3.27;2.20;;;13.30;1.00;;;;;;5112395;28;20463;-75
2023/05/13 00:51:39;;;;;;;4.40;1.50;;;13.20;1.00;;;;;;5112626;28;20459;-72
2023/05/13 00:54:06;;;;;;;2.57;1.70;;;13.20;1.00;;;;;;5113001;28;20444;-75
2023/05/13 00:56:33;;;;;;;3.90;1.67;;;13.20;1.00;;;;;;5112648;28;20918;-75
2023/05/13 00:58:59;;;;;;;3.13;1.70;;;13.20;1.00;;;;;;5111596;28;20450;-75
2023/05/13 01:01:34;;;;;;;3.40;1.90;;;13.20;1.00;;;;;;5112047;28;20450;-75
2023/05/13 01:04:09;;;;;;;1.70;1.10;;;13.20;1.00;;;;;;5111540;28;20946;-75
2023/05/13 01:06:45;;;;;;;2.50;1.53;;;13.20;1.00;;;;;;5112061;28;20467;-75
2023/05/13 01:09:19;;;;;;;3.13;1.30;;;13.10;1.00;;;;;;5111525;28;20501;-75
2023/05/13 01:11:49;;;;;;;2.93;1.47;;;13.20;1.00;;;;;;5111246;28;20444;-75
2023/05/13 01:14:22;;;;;;;2.53;1.60;;;13.10;1.00;;;;;;5111802;28;20440;-74
2023/05/13 01:16:52;;;;;;;2.60;1.73;;;13.10;16.60;;;;;;5111357;28;20444;-75
2023/05/13 01:19:35;;;;;;;1.83;1.37;;;13.10;14.40;;;;;;5111819;28;20439;-75
2023/05/13 01:22:04;;;;;;;2.13;1.50;;;13.00;35.70;;;;;;5111270;28;20443;-74
2023/05/13 01:24:31;;;;;;;2.10;1.10;;;13.00;9.90;;;;;;5111669;28;20448;-75
2023/05/13 01:26:58;;;;;;;3.37;1.53;;;13.00;99.90;;;;;;5110770;28;20722;-75
2023/05/13 01:29:25;;;;;;;2.77;1.30;;;13.00;92.90;;;;;;5111493;28;20808;-75
2023/05/13 01:31:53;;;;;;;1.70;1.00;;;12.90;66.70;;;;;;5111034;28;20451;-75
2023/05/13 01:34:22;;;;;;;3.20;1.67;;;12.90;93.20;;;;;;5112054;28;20466;-75
2023/05/13 01:36:49;;;;;;;1.67;1.10;;;12.70;99.90;;;;;;5110687;28;20455;-75
2023/05/13 01:39:19;;;;;;;1.97;1.77;;;12.60;99.90;;;;;;5111301;28;20456;-75
2023/05/13 01:41:46;;;;;;;2.07;1.27;;;12.60;99.90;;;;;;5110878;28;20444;-75
2023/05/13 01:44:12;;;;;;;2.80;1.37;;;12.60;99.90;;;;;;5111607;28;20450;-75
2023/05/13 01:46:39;;;;;;;2.20;1.43;;;12.50;99.90;;;;;;5111130;28;20487;-70
2023/05/13 01:49:08;;;;;;;3.97;1.67;;;12.50;99.90;;;;;;5111121;28;20518;-75
2023/05/13 01:51:35;;;;;;;2.73;1.80;;;12.50;99.90;;;;;;5111366;28;20444;-74
2023/05/13 01:54:02;;;;;;;3.00;2.10;;;12.40;99.90;;;;;;5110696;28;21250;-74
2023/05/13 01:56:30;;;;;;;2.90;1.87;;;12.30;99.90;;;;;;5111112;28;20462;-75
2023/05/13 01:58:57;;;;;;;3.67;1.80;;;12.40;99.90;;;;;;5110510;28;20839;-75
2023/05/13 02:01:24;;;;;;;2.47;1.60;;;12.30;99.90;;;;;;5111527;28;20444;-74
2023/05/13 02:03:51;;;;;;;1.93;1.60;;;12.30;99.90;;;;;;5111092;28;20460;-75
2023/05/13 02:06:18;;;;;;;2.80;1.77;;;12.30;99.90;;;;;;5111196;28;20487;-74
2023/05/13 02:08:45;;;;;;;3.00;1.53;;;12.30;99.90;;;;;;5110468;28;20492;-75
2023/05/13 02:11:12;;;;;;;3.73;1.50;;;12.20;99.90;;;;;;5111420;28;20500;-75
2023/05/13 02:13:40;;;;;;;2.10;1.47;;;12.20;99.90;;;;;;5110989;28;20492;-75
2023/05/13 02:16:07;;;;;;;2.03;1.60;;;12.20;99.90;;;;;;5111320;28;20469;-73
2023/05/13 02:18:34;;;;;;;3.30;1.90;;;12.20;99.90;;;;;;5110854;28;20930;-75
2023/05/13 02:21:01;;;;;;;1.97;1.33;;;12.30;99.90;;;;;;5110517;28;20462;-75
2023/05/13 02:23:28;;;;;;;2.77;1.50;;;12.30;36.80;;;;;;5111216;28;20452;-76
2023/05/13 02:25:54;;;;;;;2.70;1.70;;;12.20;58.30;;;;;;5110372;28;20471;-75
2023/05/13 02:28:21;;;;;;;2.53;1.40;;;12.30;18.00;;;;;;5110554;28;20484;-75
2023/05/13 02:30:50;;;;;;;2.47;1.73;;;12.30;1.00;;;;;;5110688;28;20455;-75
2023/05/13 02:33:16;;;;;;;2.73;1.60;;;12.20;1.00;;;;;;5111097;28;20450;-74
2023/05/13 02:35:44;;;;;;;3.00;1.70;;;;;;;;;;5110240;28;20459;-75
2023/05/13 02:38:11;;;;;;;2.70;1.40;;;;;;;;;;5109920;28;20496;-74
2023/05/13 02:40:39;;;;;;;2.97;1.60;;;;;;;;;;5109921;28;20466;-74
2023/05/13 02:43:06;;;;;;;3.80;1.60;;;;;;;;;;5110986;28;20452;-75
2023/05/13 02:45:33;;;;;;;2.10;1.30;;;;;;;;;;5111123;28;20490;-74
2023/05/13 02:48:02;;;;;;;3.23;1.60;;;;;;;;;;5110130;28;20454;-74
2023/05/13 02:50:29;;;;;;;2.10;1.50;;;;;;;;;;5097305;28;20474;-75
2023/05/13 02:52:55;;;;;;;2.20;1.20;;;12.10;99.90;;;;;;5110352;28;20452;-75
2023/05/13 02:55:22;;;;;;;2.30;1.50;;;12.10;1.00;;;;;;5110971;28;20488;-75
2023/05/13 02:57:49;;;;;;;3.10;1.40;;;12.20;1.00;;;;;;5109884;28;20436;-74
2023/05/13 03:00:17;;;;;;;2.57;1.73;;;12.20;1.00;;;;;;5110592;28;20454;-74
2023/05/13 03:02:43;;;;;;;2.30;1.30;;;12.20;1.00;;;;;;5110347;28;20443;-74
2023/05/13 03:05:11;;;;;;;3.23;1.70;;;12.20;1.00;;;;;;5110511;28;20443;-74
2023/05/13 03:07:38;;;;;;;2.60;1.40;;;12.20;1.00;;;;;;5110056;28;20857;-73
2023/05/13 03:10:06;;;;;;;1.90;1.10;;;12.10;1.00;;;;;;5110974;28;20486;-74
2023/05/13 03:12:33;;;;;;;2.20;1.50;;;12.00;1.00;;;;;;5110901;28;20448;-73
2023/05/13 03:15:00;;;;;;;2.30;1.20;;;12.10;1.00;;;;;;5109861;28;21014;-75
2023/05/13 03:17:29;;;;;;;2.07;1.40;;;12.00;99.90;;;;;;5110390;28;20451;-75
2023/05/13 03:19:56;;;;;;;2.20;1.33;;;11.90;1.00;;;;;;5096771;28;20479;-75
2023/05/13 03:22:24;;;;;;;2.17;1.03;;;12.00;1.00;;;;;;5110832;28;20435;-75
2023/05/13 03:24:51;;;;;;;2.23;1.33;;;12.00;99.90;;;;;;5110463;28;20447;-75
2023/05/13 03:27:18;;;;;;;2.10;1.40;;;12.00;44.60;;;;;;5110149;28;21002;-75
2023/05/13 03:29:45;;;;;;;2.20;1.17;;;12.10;1.00;;;;;;5110441;28;20436;-75
2023/05/13 03:32:12;;;;;;;2.17;1.30;;;12.10;1.00;;;;;;5110903;28;20455;-73
2023/05/13 03:34:38;;;;;;;2.30;1.43;;;12.10;99.90;;;;;;5110278;28;20447;-70
2023/05/13 03:37:05;;;;;;;2.40;1.40;;;12.00;99.90;;;;;;5110409;28;20459;-74
2023/05/13 03:39:33;;;;;;;2.23;1.10;;;11.90;1.00;;;;;;5110951;28;20455;-74
2023/05/13 03:42:01;;;;;;;2.23;1.00;;;12.10;99.90;;;;;;5112297;28;20454;-75
2023/05/13 03:44:28;;;;;;;4.30;1.60;;;12.10;99.90;;;;;;5114157;28;20863;-75
2023/05/13 03:46:55;;;;;;;1.70;1.30;;;12.00;1.00;;;;;;5112729;28;20483;-75
2023/05/13 03:49:22;;;;;;;2.53;1.33;;;12.00;1.00;;;;;;5114040;28;20450;-75
2023/05/13 03:51:48;;;;;;;3.27;1.30;;;12.00;99.90;;;;;;5114630;27;20827;-74
2023/05/13 03:54:15;;;;;;;2.23;1.10;;;12.10;1.00;;;;;;5114045;28;20923;-74
2023/05/13 03:56:43;;;;;;;2.13;1.50;;;12.10;1.00;;;;;;5113694;28;20451;-74
2023/05/13 03:59:10;;;;;;;2.00;1.40;;;12.10;99.90;;;;;;5113106;28;20805;-74
2023/05/13 04:01:37;;;;;;;4.00;1.50;;;12.10;1.00;;;;;;5113867;28;20460;-72
2023/05/13 04:04:04;;;;;;;1.97;1.37;;;12.00;1.00;;;;;;5110759;28;20444;-81
2023/05/13 04:06:31;;;;;;;3.50;1.63;;;12.00;46.50;;;;;;5113566;28;20475;-80
2023/05/13 04:08:58;;;;;;;2.10;1.53;;;12.10;1.00;;;;;;5112372;28;20533;-80
2023/05/13 04:11:25;;;;;;;2.23;1.47;;;12.20;1.00;;;;;;5113617;28;20452;-80
2023/05/13 04:13:53;;;;;;;1.90;1.40;;;12.10;1.00;;;;;;5113179;28;20452;-80
2023/05/13 04:16:21;;;;;;;2.13;1.10;;;12.20;1.00;;;;;;5113417;28;20448;-80
2023/05/13 04:18:48;;;;;;;2.43;1.60;;;12.20;1.00;;;;;;5112647;28;20454;-81
2023/05/13 04:21:14;;;;;;;2.40;1.70;;;12.10;1.00;;;;;;5113097;28;20923;-81
2023/05/13 04:23:41;;;;;;;2.10;1.40;;;12.20;99.90;;;;;;5112599;28;20448;-81
2023/05/13 04:26:08;;;;;;;3.17;1.57;;;12.10;99.90;;;;;;5113144;28;21053;-81
2023/05/13 04:28:36;;;;;;;5.93;3.23;;;12.10;1.00;;;;;;5112963;28;20451;-80
2023/05/13 04:31:04;;;;;;;2.57;1.50;;;12.10;99.90;;;;;;5113792;28;20448;-80
2023/05/13 04:33:31;;;;;;;4.70;1.40;;;12.10;99.90;;;;;;5113660;28;20440;-79
2023/05/13 04:35:57;;;;;;;2.27;1.27;;;12.10;99.90;;;;;;5112953;28;20617;-80
2023/05/13 04:38:24;;;;;;;2.33;1.63;;;12.10;1.00;;;;;;5113029;28;20455;-80
2023/05/13 04:40:52;;;;;;;2.40;1.57;;;12.00;99.90;;;;;;5112632;28;20458;-80
2023/05/13 04:43:18;;;;;;;1.90;1.30;;;12.10;1.00;;;;;;5113519;28;20448;-80
2023/05/13 04:45:47;;;;;;;1.80;1.40;;;12.30;99.90;;;;;;5112612;28;20450;-80
2023/05/13 04:48:15;;;;;;;2.80;1.47;;;12.20;99.90;;;;;;5112848;28;21016;-81
2023/05/13 04:50:45;;;;;;;2.23;1.50;;;12.20;99.90;;;;;;5099301;28;20846;-80
2023/05/13 04:53:12;;;;;;;1.93;1.27;;;12.20;1.00;;;;;;5118387;28;20531;-80
2023/05/13 04:55:39;;;;;;;3.30;1.17;;;12.20;99.90;;;;;;5116975;28;20440;-80
2023/05/13 04:58:05;;;;;;;2.63;1.33;;;12.20;99.90;;;;;;5112496;28;20447;-81
2023/05/13 05:00:32;;;;;;;2.33;1.40;;;12.30;99.90;;;;;;5112972;28;20454;-80
2023/05/13 05:02:59;;;;;;;2.10;1.40;;;12.20;99.90;;;;;;5112604;28;21088;-80
2023/05/13 05:05:27;;;;;;;2.43;1.70;;;12.20;99.90;;;;;;5112760;28;20535;-81
2023/05/13 05:07:54;;;;;;;2.47;1.40;;;12.20;99.90;;;;;;5111687;28;20499;-80
2023/05/13 05:10:21;;;;;;;3.20;2.07;;;12.30;99.90;;;;;;5112891;28;20471;-80
2023/05/13 05:12:48;;;;;;;2.17;1.27;;;12.20;1.00;;;;;;5112258;28;20456;-81
2023/05/13 05:15:15;;;;;;;2.80;1.70;;;12.30;1.00;;;;;;5112451;28;20926;-81
2023/05/13 05:17:42;;;;;;;2.40;1.60;;;12.20;99.90;;;;;;5111501;28;20995;-80
2023/05/13 05:20:09;;;;;;;2.50;1.00;;;12.30;1.00;;;;;;5112669;28;20452;-80
2023/05/13 05:22:40;;;;;;;3.00;1.63;;;12.30;1.00;;;;;;5112379;28;20493;-81
2023/05/13 05:25:08;;;;;;;4.60;1.57;;;12.30;30.10;;;;;;5112842;28;20451;-80
2023/05/13 05:27:35;;;;;;;2.40;1.33;;;12.30;1.00;;;;;;5112127;28;20518;-81
2023/05/13 05:30:02;;;;;;;1.90;1.10;;;12.30;1.00;;;;;;5111656;28;20474;-80
2023/05/13 05:32:28;;;;;;;3.00;1.30;;;12.30;99.90;;;;;;5112157;28;20458;-81
2023/05/13 05:34:55;;;;;;;2.77;1.30;;;12.30;82.80;;;;;;5111169;28;20462;-82
2023/05/13 05:37:22;;;;;;;2.10;1.23;;;12.20;1.00;;;;;;5111504;28;20452;-82
2023/05/13 05:39:50;;;;;;;2.43;1.40;;;12.30;1.00;;;;;;5111072;28;20448;-81
2023/05/13 05:42:17;;;;;;;1.90;1.30;;;12.30;1.00;;;;;;5112052;28;20769;-81
2023/05/13 05:44:44;;;;;;;3.67;1.70;;;12.40;98.40;;;;;;5111333;28;20443;-81
2023/05/13 05:47:10;;;;;;;2.50;1.30;;;12.40;99.90;;;;;;5111246;28;20549;-81
2023/05/13 05:49:38;;;;;;;3.73;1.33;;;12.40;99.90;;;;;;5111981;28;20455;-75
2023/05/13 05:52:05;;;;;;;5.30;2.10;;;12.40;99.90;;;;;;5111515;28;20458;-81
2023/05/13 05:54:32;;;;;;;2.47;1.37;;;12.40;99.90;;;;;;5111712;28;20462;-81
2023/05/13 05:57:00;;;;;;;1.80;1.20;;;12.30;99.90;;;;;;5110619;28;20466;-80
2023/05/13 05:59:27;;;;;;;2.47;1.23;;;12.40;11.50;;;;;;5111850;28;20536;-81
2023/05/13 06:01:54;;;;;;;3.07;1.53;;;12.40;51.20;;;;;;5111008;28;20447;-81
2023/05/13 06:04:21;;;;;;;3.33;1.73;;;12.40;99.90;;;;;;5110947;28;20447;-81
2023/05/13 06:06:47;;;;;;;2.27;1.27;;;12.40;99.90;;;;;;5110514;28;20483;-81
2023/05/13 06:09:14;;;;;;;2.63;1.33;;;12.30;99.90;;;;;;5111072;28;20472;-81
2023/05/13 06:11:41;;;;;;;2.30;1.43;;;12.30;1.00;;;;;;5111021;28;20490;-81
2023/05/13 06:14:09;;;;;;;2.53;1.70;;;12.40;1.00;;;;;;5111291;28;20455;-78
2023/05/13 06:16:36;;;;;;;2.03;1.37;;;12.40;1.00;;;;;;5110984;28;20966;-81
2023/05/13 06:19:03;;;;;;;3.03;2.13;;;12.40;1.00;;;;;;5111337;28;20938;-81
2023/05/13 06:21:30;;;;;;;2.27;1.37;;;12.40;99.90;;;;;;5111489;28;20526;-81
2023/05/13 06:23:57;;;;;;;2.90;1.57;;;12.40;1.00;;;;;;5111045;28;20443;-81
2023/05/13 06:26:25;;;;;;;3.13;1.60;;;12.40;15.70;;;;;;5097975;28;20436;-81
2023/05/13 06:28:51;;;;;;;2.40;1.67;;;12.40;1.00;;;;;;5110060;28;20454;-81
2023/05/13 06:31:19;;;;;;;2.30;1.50;;;12.40;1.00;;;;;;5111596;28;20447;-81
2023/05/13 06:33:46;;;;;;;2.43;1.60;;;12.40;1.00;;;;;;5110824;28;20443;-82
2023/05/13 06:36:13;;;;;;;2.50;1.87;;;12.50;99.90;;;;;;5111042;28;20455;-81
2023/05/13 06:38:40;;;;;;;2.03;1.53;;;12.50;1.00;;;;;;5109762;28;20978;-80
2023/05/13 06:41:06;;;;;;;3.57;1.77;;;12.50;1.00;;;;;;5111746;28;20808;-82
2023/05/13 06:43:33;;;;;;;2.23;1.87;;;12.50;1.00;;;;;;5111558;28;20439;-80
2023/05/13 06:46:00;;;;;;;2.10;1.50;;;12.80;2.90;;;;;;5112906;28;20444;-81
2023/05/13 06:48:28;;;;;;;2.53;1.80;;;12.80;1.00;;;;;;5112773;28;20498;-81
2023/05/13 06:50:55;;;;;;;2.40;1.67;;;12.90;6.70;;;;;;5115078;28;20446;-80
2023/05/13 06:53:22;;;;;;;2.73;1.60;;;12.70;1.00;;;;;;5118974;28;20851;-81
2023/05/13 06:55:49;;;;;;;2.57;1.60;;;12.80;19.10;;;;;;5112081;28;20452;-83
2023/05/13 06:58:16;;;;;;;2.63;2.07;;;12.70;1.00;;;;;;5111126;28;20447;-82
2023/05/13 07:00:45;;;;;;;3.03;1.77;;;12.70;1.00;;;;;;5110585;28;20440;-80
2023/05/13 07:03:12;;;;;;;2.13;1.47;;;12.80;1.00;;;;;;5111014;28;20462;-80
2023/05/13 07:05:40;;;;;;;2.67;1.57;;;12.80;1.00;;;;;;5110440;28;20466;-80
2023/05/13 07:08:07;;;;;;;3.13;2.20;;;12.80;1.00;;;;;;5109959;28;20491;-81
2023/05/13 07:10:34;;;;;;;1.90;1.63;;;12.80;1.00;;;;;;5100521;28;20446;-81
2023/05/13 07:13:01;;;;;;;4.20;2.40;;;12.80;1.00;;;;;;5110126;28;20538;-81
2023/05/13 07:15:28;;;;;;;4.10;2.00;;;12.90;1.00;;;;;;5113443;28;20439;-81
2023/05/13 07:17:55;;;;;;;5.73;2.00;;;12.90;1.00;;;;;;5113838;28;20458;-81
2023/05/13 07:20:23;;;;;;;1.80;1.40;;;12.90;1.00;;;;;;5114956;28;20443;-80
2023/05/13 07:22:51;;;;;;;2.57;2.13;;;13.00;99.90;;;;;;5113933;28;20531;-81
2023/05/13 07:25:18;;;;;;;2.93;1.93;;;13.10;99.90;;;;;;5114774;28;20448;-80
2023/05/13 07:27:45;;;;;;;3.00;2.03;;;13.20;99.90;;;;;;5113143;28;20998;-81
2023/05/13 07:30:12;;;;;;;2.43;1.80;;;13.30;98.20;;;;;;5114745;28;20526;-81
2023/05/13 07:32:39;;;;;;;4.50;1.73;;;13.30;99.90;;;;;;5114290;28;20466;-75
2023/05/13 07:35:07;;;;;;;2.20;1.20;;;13.30;30.60;;;;;;5115155;28;20447;-81
2023/05/13 07:37:35;;;;;;;4.17;1.93;;;13.30;22.10;;;;;;5113678;28;20938;-81
2023/05/13 07:40:05;;;;;;;2.73;1.67;;;13.20;36.50;;;;;;5114209;28;20814;-79
2023/05/13 07:42:32;;;;;;;2.70;1.70;;;13.30;99.90;;;;;;5114328;28;20450;-82
2023/05/13 07:44:58;;;;;;;3.27;2.20;;;13.30;99.90;;;;;;5114002;28;20554;-81
2023/05/13 07:47:26;;;;;;;4.00;1.90;;;13.40;3.40;;;;;;5113535;28;20479;-81
2023/05/13 07:49:53;;;;;;;2.23;1.50;;;13.40;99.90;;;;;;5113173;28;20504;-81
2023/05/13 07:52:20;;;;;;;3.23;1.50;;;13.60;99.90;;;;;;5113552;28;20443;-81
2023/05/13 07:54:46;;;;;;;2.00;1.57;;;13.70;99.90;;;;;;5113282;28;20458;-81
2023/05/13 07:57:15;;;;;;;2.10;1.57;;;13.60;1.00;;;;;;5113453;28;20447;-81
2023/05/13 07:59:41;;;;;;;4.10;2.03;;;13.60;1.00;;;;;;5113580;28;20455;-81
2023/05/13 08:02:08;;;;;;;3.00;1.73;;;13.70;1.00;;;;;;5113947;28;20802;-79
2023/05/13 08:04:35;;;;;;;3.47;2.37;;;13.60;1.00;;;;;;5108525;28;20440;-81
2023/05/13 08:07:02;;;;;;;2.90;1.80;;;13.70;1.00;;;;;;5112012;28;20454;-81
2023/05/13 08:09:29;;;;;;;4.40;2.00;;;13.80;1.00;;;;;;5113461;28;20848;-81
2023/05/13 08:11:55;;;;;;;2.50;1.80;;;13.90;1.00;;;;;;5113384;28;20451;-81
2023/05/13 08:14:24;;;;;;;3.20;1.50;;;13.90;99.90;;;;;;5113808;28;20447;-81
2023/05/13 08:16:50;;;;;;;2.43;1.90;;;13.70;1.00;;;;;;5111696;28;20515;-81
2023/05/13 08:19:17;;;;;;;2.20;1.53;;;13.80;1.00;;;;;;5113744;28;20918;-82
2023/05/13 08:21:44;;;;;;;2.70;2.03;;;13.90;99.90;;;;;;5113110;27;20451;-79
2023/05/13 08:24:11;;;;;;;4.50;1.63;;;14.00;99.90;;;;;;5114123;27;20493;-79
2023/05/13 08:26:38;;;;;;;4.03;1.90;;;14.10;99.90;;;;;;5111900;28;20443;-71
2023/05/13 08:29:05;;;;;;;2.40;1.97;;;14.10;99.90;;;;;;5112889;28;20475;-76
2023/05/13 08:31:33;;;;;;;3.83;1.83;;;14.00;99.90;;;;;;5113716;28;20451;-77
2023/05/13 08:34:00;;;;;;;2.90;1.80;;;14.00;99.90;;;;;;5112775;28;20451;-75
2023/05/13 08:36:27;;;;;;;2.13;1.47;;;14.00;99.90;;;;;;5112599;28;20448;-75
2023/05/13 08:38:54;;;;;;;2.20;1.57;;;13.90;99.90;;;;;;5116066;27;20487;-78
2023/05/13 08:41:21;;;;;;;2.20;1.60;;;13.90;99.90;;;;;;5113401;28;20850;-75
2023/05/13 08:43:49;;;;;;;2.97;2.07;;;13.90;99.90;;;;;;5111678;28;20451;-74
2023/05/13 08:46:18;;;;;;;2.53;1.50;;;13.90;99.90;;;;;;5102827;28;20450;-75
2023/05/13 08:48:47;;;;;;;2.90;2.03;;;13.90;99.90;;;;;;5111358;28;20526;-75
2023/05/13 08:51:15;;;;;;;4.00;2.00;;;14.00;99.90;;;;;;5113121;28;20444;-76
2023/05/13 08:53:43;;;;;;;3.80;1.70;;;14.10;99.90;;;;;;5105877;28;20463;-76
2023/05/13 08:56:11;;;;;;;2.40;2.00;;;13.90;99.90;;;;;;5112461;28;20451;-76
2023/05/13 08:58:38;;;;;;;3.13;2.10;;;14.00;99.90;;;;;;5115728;27;20448;-71
2023/05/13 09:01:07;;;;;;;2.73;1.73;;;13.90;99.90;;;;;;5113337;28;20527;-85
2023/05/13 09:03:35;;;;;;;8.43;4.40;;;13.80;1.00;;;;;;5112976;28;20447;-84
2023/05/13 09:06:04;;;;;;;2.23;1.83;;;13.80;1.00;;;;;;5112997;28;20809;-82
2023/05/13 09:08:31;;;;;;;4.23;2.37;;;13.80;1.00;;;;;;5120946;28;20499;-83
2023/05/13 09:10:58;;;;;;;4.57;2.33;;;13.90;1.00;;;;;;5113294;28;20448;-75
2023/05/13 09:13:25;;;;;;;3.80;1.60;;;13.90;1.00;;;;;;5112959;28;20447;-73
2023/05/13 09:15:52;;;;;;;2.80;2.00;;;13.90;1.00;;;;;;5112188;28;20454;-77
2023/05/13 09:18:19;;;;;;;2.43;1.53;;;14.00;1.00;;;;;;5112184;28;20439;-75
2023/05/13 09:20:46;;;;;;;2.83;1.80;;;14.00;1.00;;;;;;5111557;28;20440;-75
2023/05/13 09:23:15;;;;;;;2.40;1.37;;;14.10;1.00;;;;;;5112051;28;20500;-75
2023/05/13 09:25:43;;;;;;;3.07;2.00;;;14.20;99.90;;;;;;5111517;28;20848;-71
2023/05/13 09:28:14;;;;;;;4.40;2.00;;;14.20;99.90;;;;;;5114086;27;20482;-76
2023/05/13 09:30:41;;;;;;;2.00;1.30;;;14.20;99.90;;;;;;5111328;28;20522;-72
2023/05/13 09:33:10;;;;;;;2.67;1.57;;;14.20;99.90;;;;;;5112130;28;20458;-76
2023/05/13 09:35:38;;;;;;;2.73;1.70;;;14.20;99.90;;;;;;5114135;27;20926;-77
2023/05/13 09:38:16;;;;;;;2.00;1.37;;;14.40;99.90;;;;;;5110758;28;20459;-76
2023/05/13 09:40:50;;;;;;;2.30;1.57;;;14.40;99.90;;;;;;5110008;28;20440;-77
2023/05/13 09:43:18;;;;;;;2.43;1.70;;;14.30;99.90;;;;;;5113676;27;20820;-76
2023/05/13 09:45:45;;;;;;;3.20;1.63;;;14.40;99.90;;;;;;5110600;28;20447;-76
2023/05/13 09:48:13;;;;;;;2.37;1.83;;;14.40;99.90;;;;;;5110823;28;20829;-74
2023/05/13 09:50:47;;;;;;;2.67;1.60;;;14.30;99.90;;;;;;5097746;28;20443;-73
2023/05/13 09:53:16;;;;;;;2.30;1.77;;;14.40;99.90;;;;;;5111984;28;20493;-76
2023/05/13 09:55:46;;;;;;;2.10;1.43;;;14.30;99.90;;;;;;5111274;28;20444;-76
2023/05/13 09:58:13;;;;;;;2.20;1.50;;;14.40;99.90;;;;;;5111730;28;20443;-76
2023/05/13 10:00:41;;;;;;;2.43;1.63;;;14.50;99.90;;;;;;5111466;28;20439;-70
2023/05/13 10:03:08;;;;;;;1.90;1.40;;;14.60;99.90;;;;;;5111972;28;20451;-74
2023/05/13 10:05:35;;;;;;;2.20;1.60;;;14.60;99.90;;;;;;5111875;28;20452;-76
2023/05/13 10:08:03;;;;;;;3.53;2.03;;;14.80;99.90;;;;;;5110586;28;20499;-76
2023/05/13 10:10:34;;;;;;;2.80;1.80;;;15.00;17.90;;;;;;5111943;28;20440;-77
2023/05/13 10:13:05;;;;;;;2.90;2.13;;;15.10;1.00;;;;;;5111228;28;20462;-77
2023/05/13 10:15:32;;;;;;;2.50;1.80;;;15.20;1.00;;;;;;5111758;28;20485;-75
2023/05/13 10:17:59;;;;;;;3.40;1.80;;;15.10;1.00;;;;;;5110838;28;20513;-76
2023/05/13 10:20:27;;;;;;;3.10;1.93;;;15.20;1.00;;;;;;5111756;28;20451;-74
2023/05/13 10:22:55;;;;;;;1.80;1.10;;;15.30;1.00;;;;;;5110041;28;20451;-76
2023/05/13 10:25:22;;;;;;;2.47;2.03;;;15.30;1.00;;;;;;5107230;28;20487;-75
2023/05/13 10:27:52;;;;;;;1.90;1.50;;;15.40;1.00;;;;;;5107364;28;20440;-75
2023/05/13 10:30:25;;;;;;;2.40;1.43;;;15.40;1.00;;;;;;5109360;28;20454;-75
2023/05/13 10:32:52;;;;;;;2.90;1.50;;;15.40;1.00;;;;;;5106294;28;20444;-77
2023/05/13 10:35:22;;;;;;;1.93;1.30;;;15.40;1.00;;;;;;5107790;28;20443;-75
2023/05/13 10:37:59;;;;;;;2.27;2.00;;;15.40;1.00;;;;;;5096431;28;20538;-74
2023/05/13 10:40:50;;;;;;;7.73;1.40;;;15.30;1.00;;;;;;5108203;28;20452;-76
2023/05/13 10:43:20;;;;;;;2.60;1.27;;;15.30;1.00;;;;;;5101667;28;20455;-76
2023/05/13 10:45:48;;;;;;;2.33;1.43;;;15.20;1.00;;;;;;5096186;28;20439;-75
2023/05/13 10:48:15;;;;;;;2.47;1.57;;;15.30;1.00;;;;;;5107882;28;20904;-76
2023/05/13 10:50:52;;;;;;;2.10;1.43;;;15.00;1.00;;;;;;5110631;28;20447;-71
2023/05/13 10:53:22;;;;;;;3.40;1.50;;;15.00;21.30;;;;;;5112510;28;20996;-76
2023/05/13 10:55:53;;;;;;;2.03;1.53;;;14.80;99.90;;;;;;5111907;28;20445;-75
2023/05/13 10:58:23;;;;;;;2.17;1.40;;;14.90;99.90;;;;;;5112329;28;20440;-76
2023/05/13 11:00:50;;;;;;;2.20;1.70;;;14.90;99.90;;;;;;5112530;28;20739;-77
2023/05/13 11:03:28;;;;;;;2.33;1.43;;;14.80;99.90;;;;;;5111296;28;20455;-76
2023/05/13 11:06:03;;;;;;;1.83;1.50;;;14.80;99.90;;;;;;5112219;28;20444;-77
2023/05/13 11:08:37;;;;;;;2.30;1.50;;;14.70;1.00;;;;;;5112086;28;20498;-76
2023/05/13 11:11:18;;;;;;;3.53;1.70;;;14.60;1.00;;;;;;5112671;28;20442;-76
2023/05/13 11:13:46;;;;;;;2.90;1.90;;;14.70;1.00;;;;;;5112030;28;20448;-77
2023/05/13 11:16:13;;;;;;;2.47;1.70;;;14.80;99.90;;;;;;5112432;28;20959;-76
2023/05/13 11:18:41;;;;;;;3.73;1.77;;;15.10;99.90;;;;;;5111476;28;20477;-76
2023/05/13 11:21:08;;;;;;;2.10;1.50;;;15.40;99.90;;;;;;5112659;28;20450;-71
2023/05/13 11:23:51;;;;;;;3.13;2.40;;;15.50;18.70;;;;;;5112260;28;20455;-74
2023/05/13 11:26:20;;;;;;;2.87;1.67;;;15.60;1.00;;;;;;5112044;28;20447;-75
2023/05/13 11:28:59;;;;;;;2.77;2.20;;;15.80;1.00;;;;;;5104481;28;20479;-76
2023/05/13 11:31:28;;;;;;;1.93;1.30;;;15.80;1.00;;;;;;5100830;28;20463;-75
2023/05/13 11:34:09;;;;;;;2.33;1.73;;;15.60;1.00;;;;;;5111749;28;20444;-75
2023/05/13 11:36:37;;;;;;;2.47;1.67;;;15.70;1.00;;;;;;5113216;27;20442;-75
2023/05/13 11:39:12;;;;;;;2.50;2.07;;;15.80;1.00;;;;;;5111156;28;20486;-72
2023/05/13 11:41:41;;;;;;;3.13;1.87;;;15.90;1.00;;;;;;5111520;28;20880;-73
2023/05/13 11:44:11;;;;;;;3.20;2.17;;;15.70;1.00;;;;;;5111545;28;20444;-72
2023/05/13 11:46:38;;;;;;;2.00;1.33;;;15.70;1.00;;;;;;5111049;28;20444;-70
2023/05/13 11:49:05;;;;;;;2.93;1.57;;;15.60;1.00;;;;;;5110461;28;21016;-73
2023/05/13 11:51:34;;;;;;;2.20;1.63;;;15.70;1.00;;;;;;5105783;28;20535;-73
2023/05/13 11:54:02;;;;;;;1.70;1.27;;;15.60;1.00;;;;;;5111526;28;20444;-72
2023/05/13 11:56:29;;;;;;;2.47;1.70;;;15.50;1.00;;;;;;5113092;27;20447;-72
2023/05/13 11:59:12;;;;;;;2.33;1.43;;;15.30;1.00;;;;;;5110597;28;20444;-79
2023/05/13 12:01:40;;;;;;;2.50;1.70;;;15.40;1.00;;;;;;5109758;28;20455;-73
2023/05/13 12:04:07;;;;;;;2.00;1.40;;;15.40;1.00;;;;;;5100050;28;20444;-74
2023/05/13 12:06:34;;;;;;;3.40;1.90;;;15.50;1.00;;;;;;5111142;28;20576;-75
2023/05/13 12:09:05;;;;;;;2.40;1.60;;;15.30;14.40;;;;;;5110590;28;20492;-76
2023/05/13 12:11:33;;;;;;;2.83;1.90;;;15.30;35.40;;;;;;5111538;28;20450;-78
2023/05/13 12:14:00;;;;;;;2.40;1.73;;;15.40;27.70;;;;;;5111003;28;21222;-75
2023/05/13 12:16:27;;;;;;;4.23;1.80;;;15.50;1.00;;;;;;5111447;28;20444;-76
2023/05/13 12:19:04;;;;;;;2.60;1.80;;;15.70;1.00;;;;;;5110498;28;20458;-76
2023/05/13 12:21:33;;;;;;;2.67;1.67;;;15.80;1.00;;;;;;5109142;28;20446;-76
2023/05/13 12:24:00;;;;;;;2.40;1.63;;;15.90;1.00;;;;;;5110651;28;20436;-76
2023/05/13 12:26:27;;;;;;;2.50;1.60;;;15.80;1.00;;;;;;5100533;28;20459;-76
2023/05/13 12:28:58;;;;;;;2.33;1.60;;;15.60;1.00;;;;;;5110064;28;20490;-77
2023/05/13 12:31:25;;;;;;;2.07;1.43;;;15.50;1.00;;;;;;5111019;28;20522;-74
2023/05/13 12:33:52;;;;;;;3.33;2.07;;;15.40;1.00;;;;;;5110344;28;20452;-75
2023/05/13 12:36:24;;;;;;;2.43;1.37;;;15.40;1.00;;;;;;5110291;28;20447;-77
2023/05/13 12:38:55;;;;;;;2.40;1.40;;;15.50;1.00;;;;;;5109766;28;20459;-76
2023/05/13 12:41:24;;;;;;;1.70;1.30;;;15.60;1.00;;;;;;5111127;28;20439;-76
2023/05/13 12:43:52;;;;;;;2.03;1.40;;;15.70;1.00;;;;;;5110362;28;20486;-75
2023/05/13 12:46:19;;;;;;;3.27;1.57;;;15.90;1.00;;;;;;5110624;28;20500;-76
2023/05/13 12:48:46;;;;;;;2.30;1.73;;;16.00;1.00;;;;;;5108709;28;20471;-76
2023/05/13 12:51:14;;;;;;;2.30;1.37;;;;;;;;;;5114326;27;20455;-75
2023/05/13 12:53:43;;;;;;;1.80;1.37;;;;;;;;;;5109915;28;20868;-72
2023/05/13 12:56:10;;;;;;;1.90;1.30;;;16.40;1.00;;;;;;5110093;28;20459;-75
2023/05/13 12:58:37;;;;;;;1.87;1.47;;;16.70;99.90;;;;;;5110358;28;20531;-75